createdAt,value
2022-12-29T00:05:13.475Z,1004
2022-12-29T00:10:32.247Z,1008
2022-12-29T00:15:50.739Z,1007
2022-12-29T00:21:09.597Z,1008
2022-12-29T00:26:27.637Z,1011
2022-12-29T00:31:46.421Z,1006
2022-12-29T00:37:04.505Z,1002
2022-12-29T00:42:22.738Z,1004
2022-12-29T00:47:40.930Z,1006
2022-12-29T00:52:59.166Z,1005
2022-12-29T00:58:17.383Z,1006
2022-12-29T01:03:36.143Z,1006
2022-12-29T01:08:54.087Z,1004
2022-12-29T01:14:12.325Z,1003
2022-12-29T01:19:31.086Z,1003
2022-12-29T01:24:49.616Z,1002
2022-12-29T01:30:07.972Z,998
2022-12-29T01:35:26.445Z,998
2022-12-29T01:40:45.230Z,994
2022-12-29T01:46:04.025Z,999
2022-12-29T01:51:22.366Z,997
2022-12-29T01:56:40.627Z,990
2022-12-29T02:01:58.864Z,989
2022-12-29T02:07:17.189Z,988
2022-12-29T02:12:36.076Z,990
2022-12-29T02:17:54.558Z,990
2022-12-29T02:23:13.046Z,989
2022-12-29T02:28:32.014Z,988
2022-12-29T02:33:50.253Z,985
2022-12-29T02:39:08.489Z,982
2022-12-29T02:44:26.694Z,980
2022-12-29T02:49:44.649Z,980
2022-12-29T02:55:03.124Z,973
2022-12-29T03:00:21.913Z,980
2022-12-29T03:05:40.127Z,974
2022-12-29T03:10:58.071Z,975
2022-12-29T03:16:16.349Z,976
2022-12-29T03:21:36.876Z,973
2022-12-29T03:26:54.764Z,977
2022-12-29T03:32:13.317Z,976
2022-12-29T03:37:31.565Z,973
2022-12-29T03:42:50.330Z,971
2022-12-29T03:48:08.855Z,969
2022-12-29T03:53:27.359Z,970
2022-12-29T03:58:45.829Z,963
2022-12-29T04:04:04.605Z,969
2022-12-29T04:09:22.848Z,968
2022-12-29T04:14:41.326Z,973
2022-12-29T04:20:00.135Z,971
2022-12-29T04:25:18.655Z,968
2022-12-29T04:30:36.849Z,964
2022-12-29T04:35:55.399Z,960
2022-12-29T04:41:13.320Z,967
2022-12-29T04:46:31.313Z,960
2022-12-29T04:51:49.325Z,960
2022-12-29T04:57:07.554Z,961
2022-12-29T05:02:25.866Z,957
2022-12-29T05:07:44.572Z,960
2022-12-29T05:13:02.812Z,963
2022-12-29T05:18:20.708Z,965
2022-12-29T05:23:39.509Z,962
2022-12-29T05:28:57.751Z,960
2022-12-29T05:34:15.974Z,963
2022-12-29T05:39:34.501Z,964
2022-12-29T05:44:52.438Z,963
2022-12-29T05:50:11.184Z,964
2022-12-29T05:55:29.416Z,965
2022-12-29T06:00:47.370Z,966
2022-12-29T06:06:05.547Z,967
2022-12-29T06:11:24.358Z,967
2022-12-29T06:16:42.633Z,974
2022-12-29T06:22:01.289Z,970
2022-12-29T06:27:19.246Z,973
2022-12-29T06:32:37.438Z,980
2022-12-29T06:37:55.919Z,982
2022-12-29T06:43:14.732Z,977
2022-12-29T06:48:32.922Z,986
2022-12-29T06:53:50.842Z,983
2022-12-29T06:59:09.640Z,988
2022-12-29T07:04:28.120Z,988
2022-12-29T07:09:46.304Z,989
2022-12-29T07:15:04.849Z,984
2022-12-29T07:20:26.670Z,989
2022-12-29T07:25:45.903Z,990
2022-12-29T07:31:04.676Z,987
2022-12-29T07:36:23.175Z,985
2022-12-29T07:41:47.153Z,985
2022-12-29T07:47:05.448Z,982
2022-12-29T07:52:24.031Z,982
2022-12-29T07:57:42.216Z,977
2022-12-29T08:03:00.729Z,972
2022-12-29T08:08:19.483Z,976
2022-12-29T08:13:37.411Z,972
2022-12-29T08:18:55.361Z,968
2022-12-29T08:24:13.570Z,968
2022-12-29T08:29:31.477Z,968
2022-12-29T08:34:50.312Z,963
2022-12-29T08:40:08.789Z,964
2022-12-29T08:45:27.281Z,965
2022-12-29T08:50:45.800Z,957
2022-12-29T08:56:05.580Z,963
2022-12-29T09:01:24.340Z,959
2022-12-29T09:06:42.950Z,960
2022-12-29T09:12:01.430Z,955
2022-12-29T09:17:19.900Z,954
2022-12-29T09:22:38.680Z,947
2022-12-29T09:27:56.647Z,945
2022-12-29T09:33:15.385Z,947
2022-12-29T09:38:34.216Z,944
2022-12-29T09:43:52.690Z,940
2022-12-29T09:49:11.443Z,942
2022-12-29T09:54:29.948Z,940
2022-12-29T09:59:48.759Z,934
2022-12-29T10:05:07.198Z,932
2022-12-29T10:10:26.026Z,936
2022-12-29T10:15:44.541Z,933
2022-12-29T10:21:03.298Z,933
2022-12-29T10:26:21.819Z,931
2022-12-29T10:31:40.450Z,934
2022-12-29T10:36:59.235Z,931
2022-12-29T10:42:17.501Z,933
2022-12-29T10:47:35.715Z,928
2022-12-29T10:52:53.641Z,932
2022-12-29T10:58:11.876Z,927
2022-12-29T11:03:30.504Z,929
2022-12-29T11:08:48.703Z,923
2022-12-29T11:14:06.949Z,921
2022-12-29T11:19:25.120Z,910
2022-12-29T11:24:43.915Z,916
2022-12-29T11:30:02.713Z,915
2022-12-29T11:35:20.611Z,922
2022-12-29T11:40:39.369Z,914
2022-12-29T11:45:58.078Z,919
2022-12-29T11:51:20.448Z,919
2022-12-29T11:56:43.487Z,911
2022-12-29T12:02:01.878Z,917
2022-12-29T12:07:21.496Z,914
2022-12-29T12:12:39.691Z,917
2022-12-29T12:17:57.938Z,919
2022-12-29T12:23:15.918Z,920
2022-12-29T12:28:36.685Z,917
2022-12-29T12:33:55.739Z,917
2022-12-29T12:39:14.248Z,916
2022-12-29T12:44:32.999Z,916
2022-12-29T12:49:50.958Z,920
2022-12-29T12:55:09.859Z,919
2022-12-29T13:00:28.376Z,919
2022-12-29T13:05:46.864Z,926
2022-12-29T13:11:05.335Z,933
2022-12-29T13:16:23.866Z,931
2022-12-29T13:21:42.582Z,927
2022-12-29T13:27:05.417Z,925
2022-12-29T13:32:23.915Z,924
2022-12-29T13:37:42.775Z,918
2022-12-29T13:43:01.527Z,914
2022-12-29T13:48:20.287Z,910
2022-12-29T13:53:38.539Z,908
2022-12-29T13:58:56.754Z,906
2022-12-29T14:04:15.021Z,904
2022-12-29T14:09:35.357Z,906
2022-12-29T14:14:53.904Z,904
2022-12-29T14:20:12.121Z,903
2022-12-29T14:25:30.886Z,906
2022-12-29T14:30:49.083Z,911
2022-12-29T14:36:07.572Z,907
2022-12-29T14:41:25.518Z,911
2022-12-29T14:46:44.509Z,913
2022-12-29T14:52:03.585Z,915
2022-12-29T14:57:21.789Z,915
2022-12-29T15:02:40.380Z,917
2022-12-29T15:07:59.445Z,918
2022-12-29T15:13:17.715Z,914
2022-12-29T15:18:36.303Z,910
2022-12-29T15:23:54.504Z,915
2022-12-29T15:29:12.754Z,910
2022-12-29T15:34:31.128Z,912
2022-12-29T15:39:50.244Z,919
2022-12-29T15:45:11.044Z,905
2022-12-29T15:50:29.933Z,905
2022-12-29T15:55:48.684Z,905
2022-12-29T16:01:07.546Z,912
2022-12-29T16:06:25.766Z,909
2022-12-29T16:11:44.267Z,912
2022-12-29T16:17:02.836Z,911
2022-12-29T16:22:21.062Z,906
2022-12-29T16:27:39.260Z,911
2022-12-29T16:32:57.213Z,911
2022-12-29T16:38:15.131Z,909
2022-12-29T16:43:33.333Z,909
2022-12-29T16:48:51.860Z,911
2022-12-29T16:54:10.425Z,911
2022-12-29T16:59:28.914Z,910
2022-12-29T17:04:47.402Z,911
2022-12-29T17:10:05.337Z,913
2022-12-29T17:15:23.807Z,919
2022-12-29T17:20:42.051Z,921
2022-12-29T17:26:00.839Z,950
2022-12-29T17:31:19.361Z,959
2022-12-29T17:36:38.174Z,958
2022-12-29T17:41:56.904Z,968
2022-12-29T17:47:15.392Z,987
2022-12-29T17:52:33.630Z,1008
2022-12-29T17:57:52.072Z,1064
2022-12-29T18:03:10.698Z,1099
2022-12-29T18:08:29.527Z,1106
2022-12-29T18:13:48.014Z,1105
2022-12-29T18:19:06.493Z,1135
2022-12-29T18:24:24.447Z,1163
2022-12-29T18:29:42.943Z,1183
2022-12-29T18:35:01.428Z,1225
2022-12-29T18:40:04.590Z,1338
2022-12-29T18:45:23.089Z,1294
2022-12-29T18:50:41.275Z,1240
2022-12-29T18:55:59.810Z,1294
2022-12-29T19:01:18.519Z,1322
2022-12-29T19:06:37.241Z,1338
2022-12-29T19:11:55.543Z,1338
2022-12-29T19:17:13.720Z,1321
2022-12-29T19:22:31.640Z,1311
2022-12-29T19:27:49.866Z,1311
2022-12-29T19:32:52.433Z,1316
2022-12-29T19:38:11.203Z,1327
2022-12-29T19:43:29.149Z,1333
2022-12-29T19:48:47.668Z,1334
2022-12-29T19:54:06.146Z,1336
2022-12-29T19:59:24.680Z,1356
2022-12-29T20:04:43.187Z,1360
2022-12-29T20:10:01.683Z,1357
2022-12-29T20:15:20.170Z,1361
2022-12-29T20:20:38.341Z,1380
2022-12-29T20:25:56.617Z,1392
2022-12-29T20:31:14.723Z,1452
2022-12-29T20:36:33.183Z,1507
2022-12-29T20:41:51.461Z,1543
2022-12-29T20:47:09.998Z,1552
2022-12-29T20:52:28.206Z,1546
2022-12-29T21:03:43.980Z,1532
2022-12-29T21:09:02.081Z,1529
2022-12-29T21:14:20.290Z,1532
2022-12-29T21:19:23.239Z,1537
2022-12-29T21:24:41.716Z,1540
2022-12-29T21:30:00.440Z,1540
2022-12-29T21:35:19.296Z,1535
2022-12-29T21:40:37.789Z,1537
2022-12-29T21:45:56.314Z,1533
2022-12-29T21:51:14.706Z,1548
2022-12-29T21:56:32.622Z,1576
2022-12-29T22:01:51.251Z,1581
2022-12-29T22:07:10.628Z,1625
2022-12-29T22:12:28.561Z,1650
2022-12-29T22:17:48.936Z,1687
2022-12-29T22:23:08.129Z,1711
2022-12-29T22:28:27.013Z,1743
2022-12-29T22:33:45.214Z,1764
2022-12-29T22:39:03.739Z,1774
2022-12-29T22:44:21.994Z,1798
2022-12-29T22:49:40.749Z,1797
2022-12-29T22:55:04.806Z,1813
2022-12-29T23:00:25.475Z,1816
2022-12-29T23:05:43.935Z,1818
2022-12-29T23:11:02.702Z,1819
2022-12-29T23:16:20.668Z,1816
2022-12-29T23:21:39.565Z,1817
2022-12-29T23:26:58.094Z,1815
2022-12-29T23:32:16.618Z,1819
2022-12-29T23:37:35.380Z,1816
2022-12-29T23:42:53.611Z,1813
2022-12-29T23:48:11.782Z,1813
2022-12-29T23:53:14.669Z,1812
2022-12-29T23:58:32.901Z,1799
